Time;durP1;ratioP1;P1;durP2;ratioP2;P2;SDS_P1;SDS_P2;PMS_P1;PMS_P2;Temp;Humidity;BMP_temperature;BMP_pressure;BME280_temperature;BME280_humidity;BME280_pressure;Samples;Min_cycle;Max_cycle;Signal;HPM_P1;HPM_P2
2021/10/23 00:00:54;;;;;;;2.90;2.70;;;7.50;99.90;;;;;;465300;255;28257;-74
2021/10/23 00:02:55;;;;;;;4.60;2.75;;;7.50;99.90;;;;;;465367;255;28116;-74
2021/10/23 00:04:57;;;;;;;6.13;2.43;;;7.50;99.90;;;;;;465351;255;27608;-74
2021/10/23 00:06:58;;;;;;;5.70;3.20;;;7.50;99.90;;;;;;465329;255;28950;-74
2021/10/23 00:08:59;;;;;;;3.83;2.83;;;7.50;99.90;;;;;;465361;255;27811;-74
2021/10/23 00:11:00;;;;;;;5.17;2.77;;;7.50;99.90;;;;;;465354;255;28009;-74
2021/10/23 00:13:02;;;;;;;2.87;2.58;;;7.60;99.90;;;;;;465327;255;29505;-74
2021/10/23 00:15:03;;;;;;;4.43;2.40;;;7.60;99.90;;;;;;465347;255;27979;-75
2021/10/23 00:17:04;;;;;;;2.92;2.70;;;7.60;99.90;;;;;;465353;255;27620;-74
2021/10/23 00:19:05;;;;;;;3.37;2.43;;;7.60;99.90;;;;;;465355;251;27569;-74
2021/10/23 00:21:07;;;;;;;4.80;2.50;;;7.50;99.90;;;;;;465343;255;28024;-74
2021/10/23 00:23:08;;;;;;;4.45;2.60;;;7.60;99.90;;;;;;465343;255;29018;-73
2021/10/23 00:25:09;;;;;;;4.23;2.80;;;7.50;99.90;;;;;;465368;251;27635;-75
2021/10/23 00:27:10;;;;;;;5.40;3.10;;;7.50;99.90;;;;;;465362;255;27991;-74
2021/10/23 00:29:12;;;;;;;5.87;2.80;;;7.50;99.90;;;;;;465354;255;28776;-74
2021/10/23 00:31:13;;;;;;;3.27;2.80;;;7.50;99.90;;;;;;465353;255;28556;-74
2021/10/23 00:33:14;;;;;;;3.70;2.80;;;7.50;99.90;;;;;;465326;255;28640;-74
2021/10/23 00:35:15;;;;;;;3.40;3.00;;;7.50;99.90;;;;;;465327;255;28824;-75
2021/10/23 00:37:17;;;;;;;2.83;2.47;;;7.40;99.90;;;;;;465351;255;28235;-74
2021/10/23 00:39:18;;;;;;;3.40;3.10;;;7.50;99.90;;;;;;465356;255;28650;-74
2021/10/23 00:41:19;;;;;;;4.60;3.03;;;7.50;99.90;;;;;;465344;255;29371;-74
2021/10/23 00:43:20;;;;;;;3.10;2.90;;;7.50;99.90;;;;;;465329;255;28934;-74
2021/10/23 00:45:22;;;;;;;3.23;3.00;;;7.40;99.90;;;;;;465385;255;27675;-75
2021/10/23 00:47:23;;;;;;;4.80;3.17;;;7.40;99.90;;;;;;465370;255;28585;-74
2021/10/23 00:49:25;;;;;;;4.43;3.20;;;7.40;99.90;;;;;;465367;255;28104;-74
2021/10/23 00:51:25;;;;;;;4.10;3.30;;;7.40;99.90;;;;;;465351;255;28234;-73
2021/10/23 00:53:27;;;;;;;3.73;3.43;;;7.40;99.90;;;;;;465337;255;27580;-74
2021/10/23 00:55:28;;;;;;;4.10;3.20;;;7.40;99.90;;;;;;465376;255;28468;-73
2021/10/23 00:57:29;;;;;;;3.45;3.15;;;7.40;99.90;;;;;;465351;255;29002;-74
2021/10/23 00:59:30;;;;;;;3.43;3.13;;;7.40;99.90;;;;;;465385;254;28060;-74
2021/10/23 01:01:32;;;;;;;3.43;3.13;;;7.40;99.90;;;;;;465309;255;29540;-73
2021/10/23 01:03:33;;;;;;;3.27;2.60;;;7.40;99.90;;;;;;465330;255;28742;-74
2021/10/23 01:05:34;;;;;;;4.33;3.17;;;7.40;99.90;;;;;;465362;255;28991;-75
2021/10/23 01:07:35;;;;;;;3.47;3.10;;;7.40;99.90;;;;;;465357;255;28146;-74
2021/10/23 01:09:37;;;;;;;3.57;2.87;;;7.40;99.90;;;;;;465304;255;28024;-74
2021/10/23 01:11:38;;;;;;;4.90;3.07;;;7.40;99.90;;;;;;465307;255;28092;-74
2021/10/23 01:13:39;;;;;;;3.35;2.62;;;7.40;99.90;;;;;;465354;255;27867;-73
2021/10/23 01:15:40;;;;;;;3.67;2.87;;;7.30;99.90;;;;;;465368;255;27683;-73
2021/10/23 01:17:42;;;;;;;3.93;3.00;;;7.40;99.90;;;;;;465343;255;28952;-74
2021/10/23 01:19:43;;;;;;;4.10;3.20;;;7.40;99.90;;;;;;465323;255;28345;-74
2021/10/23 01:21:44;;;;;;;7.03;3.20;;;7.40;99.90;;;;;;465342;255;28052;-74
2021/10/23 01:23:45;;;;;;;3.40;3.00;;;7.40;99.90;;;;;;465364;255;27900;-74
2021/10/23 01:25:47;;;;;;;4.40;3.50;;;7.40;99.90;;;;;;465355;255;28114;-74
2021/10/23 01:27:48;;;;;;;5.93;2.90;;;7.40;99.90;;;;;;465330;255;28455;-73
2021/10/23 01:29:49;;;;;;;4.30;3.20;;;7.40;99.90;;;;;;465338;255;28532;-73
2021/10/23 01:31:50;;;;;;;3.90;2.87;;;7.40;99.90;;;;;;465352;251;28526;-74
2021/10/23 01:33:52;;;;;;;5.23;3.30;;;7.40;99.90;;;;;;465344;255;29013;-74
2021/10/23 01:35:53;;;;;;;4.37;2.53;;;7.40;99.90;;;;;;465339;255;28518;-74
2021/10/23 01:37:55;;;;;;;3.20;2.67;;;7.40;99.90;;;;;;465337;255;28036;-74
2021/10/23 01:39:55;;;;;;;2.78;2.55;;;7.40;99.90;;;;;;465330;255;28019;-73
2021/10/23 01:41:57;;;;;;;3.00;2.70;;;7.40;99.90;;;;;;465375;255;27572;-76
2021/10/23 01:43:58;;;;;;;2.40;2.20;;;7.40;99.90;;;;;;465363;255;27569;-74
2021/10/23 01:45:59;;;;;;;4.60;2.40;;;7.40;99.90;;;;;;465316;255;27599;-75
2021/10/23 01:48:00;;;;;;;3.60;3.00;;;7.40;99.90;;;;;;465333;255;28029;-74
2021/10/23 01:50:02;;;;;;;3.13;2.93;;;7.40;99.90;;;;;;465330;255;28454;-73
2021/10/23 01:52:03;;;;;;;4.67;2.77;;;7.40;99.90;;;;;;465349;254;28786;-74
2021/10/23 01:54:04;;;;;;;4.80;3.33;;;7.40;99.90;;;;;;465333;255;29485;-74
2021/10/23 01:56:06;;;;;;;4.37;3.00;;;7.40;99.90;;;;;;465336;255;28331;-74
2021/10/23 01:58:07;;;;;;;3.60;2.60;;;7.40;99.90;;;;;;465350;255;27977;-74
2021/10/23 02:00:08;;;;;;;2.87;2.57;;;7.40;99.90;;;;;;465339;255;27994;-73
2021/10/23 02:02:09;;;;;;;3.40;3.10;;;7.40;99.90;;;;;;465353;255;28144;-75
2021/10/23 02:04:10;;;;;;;3.60;3.30;;;7.40;99.90;;;;;;465317;255;28261;-74
2021/10/23 02:06:12;;;;;;;3.67;3.07;;;7.40;99.90;;;;;;465315;255;27565;-74
2021/10/23 02:08:13;;;;;;;4.28;2.50;;;7.40;99.90;;;;;;465347;255;28069;-74
2021/10/23 02:10:14;;;;;;;4.60;3.20;;;7.40;99.90;;;;;;465344;255;27561;-74
2021/10/23 02:12:16;;;;;;;3.77;3.20;;;7.40;99.90;;;;;;465316;255;28932;-74
2021/10/23 02:14:17;;;;;;;4.03;3.00;;;7.40;99.90;;;;;;465330;255;27935;-73
2021/10/23 02:16:18;;;;;;;3.87;2.73;;;7.40;99.90;;;;;;465296;255;28946;-74
2021/10/23 02:18:19;;;;;;;2.80;2.60;;;7.30;99.90;;;;;;465330;255;28087;-74
2021/10/23 02:20:21;;;;;;;3.80;2.90;;;7.30;99.90;;;;;;465335;255;29566;-74
2021/10/23 02:22:22;;;;;;;4.07;2.93;;;7.40;99.90;;;;;;465312;255;28734;-74
2021/10/23 02:24:23;;;;;;;3.00;2.70;;;7.40;99.90;;;;;;465337;255;29405;-74
2021/10/23 02:26:24;;;;;;;2.50;2.30;;;7.30;99.90;;;;;;465325;255;29410;-74
2021/10/23 02:28:26;;;;;;;3.10;2.90;;;7.30;99.90;;;;;;465364;255;28949;-75
2021/10/23 02:30:27;;;;;;;4.60;3.13;;;7.30;99.90;;;;;;465313;255;28896;-74
2021/10/23 02:32:28;;;;;;;4.93;3.10;;;7.30;99.90;;;;;;465322;255;29063;-74
2021/10/23 02:34:29;;;;;;;4.82;3.15;;;7.30;99.90;;;;;;465319;255;28914;-74
2021/10/23 02:36:31;;;;;;;4.10;3.12;;;7.30;99.90;;;;;;465332;255;27671;-74
2021/10/23 02:38:32;;;;;;;3.10;2.80;;;7.20;99.90;;;;;;465353;255;27575;-74
2021/10/23 02:40:33;;;;;;;3.00;2.70;;;7.20;99.90;;;;;;465349;255;27950;-74
2021/10/23 02:42:34;;;;;;;5.90;4.10;;;7.20;99.90;;;;;;465332;251;28305;-74
2021/10/23 02:44:36;;;;;;;5.83;4.17;;;7.10;99.90;;;;;;465334;255;28243;-74
2021/10/23 02:46:37;;;;;;;4.43;4.03;;;7.10;99.90;;;;;;465303;255;28484;-74
2021/10/23 02:48:38;;;;;;;4.62;3.97;;;7.10;99.90;;;;;;465273;255;29518;-74
2021/10/23 02:50:39;;;;;;;3.73;3.47;;;7.10;99.90;;;;;;465299;255;28072;-73
2021/10/23 02:52:41;;;;;;;4.47;4.10;;;7.10;99.90;;;;;;465327;255;28935;-74
2021/10/23 02:54:42;;;;;;;4.53;3.70;;;7.10;99.90;;;;;;465334;255;27583;-75
2021/10/23 02:56:43;;;;;;;3.50;3.20;;;7.10;99.90;;;;;;465322;255;27664;-73
2021/10/23 02:58:44;;;;;;;3.47;3.20;;;7.10;99.90;;;;;;465337;255;27587;-74
2021/10/23 03:00:46;;;;;;;3.45;3.05;;;7.10;99.90;;;;;;465306;255;28905;-73
2021/10/23 03:02:47;;;;;;;6.45;3.37;;;7.10;99.90;;;;;;465291;255;28768;-74
2021/10/23 03:04:48;;;;;;;3.90;3.50;;;7.10;99.90;;;;;;465382;255;28139;-75
2021/10/23 03:06:49;;;;;;;3.30;3.00;;;7.10;99.90;;;;;;465377;255;27543;-74
2021/10/23 03:08:51;;;;;;;3.25;2.95;;;7.10;99.90;;;;;;465381;255;27957;-74
2021/10/23 03:10:52;;;;;;;4.00;3.10;;;7.10;99.90;;;;;;465342;255;27637;-73
2021/10/23 03:12:53;;;;;;;4.05;3.25;;;7.00;99.90;;;;;;465335;255;27592;-73
2021/10/23 03:14:54;;;;;;;3.33;3.03;;;7.00;99.90;;;;;;465357;255;27623;-73
2021/10/23 03:16:56;;;;;;;3.40;3.10;;;7.00;99.90;;;;;;465315;255;27568;-73
2021/10/23 03:18:57;;;;;;;3.60;3.28;;;7.00;99.90;;;;;;465349;255;28053;-73
2021/10/23 03:20:58;;;;;;;4.93;3.10;;;7.00;99.90;;;;;;465350;255;28097;-73
2021/10/23 03:22:59;;;;;;;2.87;2.60;;;7.00;99.90;;;;;;465363;255;28922;-74
2021/10/23 03:25:01;;;;;;;3.90;3.45;;;7.00;99.90;;;;;;465373;250;27611;-74
2021/10/23 03:27:02;;;;;;;4.72;3.17;;;7.00;99.90;;;;;;465345;255;27623;-74
2021/10/23 03:29:03;;;;;;;3.10;2.80;;;7.00;99.90;;;;;;465368;255;27668;-74
2021/10/23 03:31:04;;;;;;;3.22;2.97;;;7.00;99.90;;;;;;465333;255;27608;-75
2021/10/23 03:33:06;;;;;;;3.37;2.92;;;7.00;99.90;;;;;;465318;250;28072;-73
2021/10/23 03:35:07;;;;;;;3.67;2.85;;;7.00;99.90;;;;;;465333;251;28059;-74
2021/10/23 03:37:08;;;;;;;5.55;2.95;;;7.00;99.90;;;;;;465303;255;27647;-73
2021/10/23 03:39:09;;;;;;;3.78;2.60;;;7.00;99.90;;;;;;465371;250;27563;-74
2021/10/23 03:41:11;;;;;;;3.37;2.72;;;7.00;99.90;;;;;;465339;255;27550;-74
2021/10/23 03:43:12;;;;;;;3.95;3.12;;;7.00;99.90;;;;;;465368;255;27532;-73
2021/10/23 03:45:13;;;;;;;4.70;3.10;;;6.90;99.90;;;;;;465338;255;28032;-73
2021/10/23 03:47:16;;;;;;;3.72;3.42;;;6.90;99.90;;;;;;465332;255;28678;-74
2021/10/23 03:49:16;;;;;;;5.40;3.03;;;6.90;99.90;;;;;;471166;251;27391;-73
2021/10/23 03:51:17;;;;;;;4.78;3.03;;;6.90;99.90;;;;;;472228;249;28058;-73
2021/10/23 03:53:18;;;;;;;8.03;3.00;;;6.90;99.90;;;;;;472256;249;27435;-74
2021/10/23 03:55:20;;;;;;;3.47;3.17;;;6.80;99.90;;;;;;472343;250;28484;-74
2021/10/23 03:57:21;;;;;;;5.43;2.87;;;6.80;99.90;;;;;;472369;249;27434;-74
2021/10/23 03:59:22;;;;;;;3.30;3.00;;;6.80;99.90;;;;;;467904;249;27400;-74
2021/10/23 04:01:24;;;;;;;4.30;3.70;;;6.80;99.90;;;;;;464296;256;28075;-73
2021/10/23 04:03:25;;;;;;;2.80;2.53;;;6.70;99.90;;;;;;483674;246;27840;-74
2021/10/23 04:05:26;;;;;;;4.43;3.05;;;6.70;99.90;;;;;;483622;241;27492;-74
2021/10/23 04:07:28;;;;;;;4.80;3.05;;;6.70;99.90;;;;;;483622;245;27424;-74
2021/10/23 04:09:28;;;;;;;4.60;3.47;;;6.70;99.90;;;;;;483657;246;27412;-74
2021/10/23 04:11:30;;;;;;;3.60;2.90;;;6.70;99.90;;;;;;483666;246;27448;-74
2021/10/23 04:13:31;;;;;;;4.53;3.33;;;6.70;99.90;;;;;;483548;245;27488;-73
2021/10/23 04:15:33;;;;;;;5.78;3.05;;;6.70;99.90;;;;;;483536;246;28568;-73
2021/10/23 04:17:34;;;;;;;3.70;3.10;;;6.70;99.90;;;;;;483557;246;27919;-75
2021/10/23 04:19:35;;;;;;;6.20;3.22;;;6.70;99.90;;;;;;483594;245;27468;-74
2021/10/23 04:21:36;;;;;;;4.55;3.00;;;6.60;99.90;;;;;;483583;246;27440;-74
2021/10/23 04:23:37;;;;;;;4.15;3.10;;;6.60;99.90;;;;;;483663;246;27405;-73
2021/10/23 04:25:38;;;;;;;3.75;3.28;;;6.60;99.90;;;;;;483645;246;27488;-73
2021/10/23 04:27:40;;;;;;;3.58;3.28;;;6.60;99.90;;;;;;482802;245;27413;-73
2021/10/23 04:29:41;;;;;;;3.60;3.12;;;6.60;99.90;;;;;;478537;248;27922;-73
2021/10/23 04:31:42;;;;;;;5.45;4.07;;;6.70;99.90;;;;;;478490;248;28015;-73
2021/10/23 04:33:43;;;;;;;4.25;3.20;;;6.70;99.90;;;;;;478509;248;27643;-76
2021/10/23 04:35:45;;;;;;;3.53;3.22;;;6.70;99.90;;;;;;478523;248;27584;-74
2021/10/23 04:37:46;;;;;;;4.68;3.67;;;6.70;99.90;;;;;;478532;243;27577;-74
2021/10/23 04:39:47;;;;;;;4.20;3.50;;;6.70;99.90;;;;;;478521;248;27498;-72
2021/10/23 04:41:48;;;;;;;3.67;3.35;;;6.70;99.90;;;;;;478504;248;27524;-72
2021/10/23 04:43:50;;;;;;;4.65;3.67;;;6.80;99.90;;;;;;478507;248;28065;-75
2021/10/23 04:45:51;;;;;;;4.40;3.92;;;6.80;99.90;;;;;;478474;248;27967;-72
2021/10/23 04:47:52;;;;;;;5.07;3.70;;;6.80;99.90;;;;;;478553;248;27528;-72
2021/10/23 04:49:53;;;;;;;4.18;3.35;;;6.80;99.90;;;;;;478485;248;27561;-73
2021/10/23 04:51:55;;;;;;;4.80;3.95;;;6.80;99.90;;;;;;478498;248;27552;-72
2021/10/23 04:53:56;;;;;;;5.37;3.85;;;6.80;99.90;;;;;;478511;248;27536;-74
2021/10/23 04:55:57;;;;;;;5.20;4.15;;;6.80;99.90;;;;;;466234;255;27429;-73
2021/10/23 04:57:59;;;;;;;4.35;3.72;;;6.80;99.90;;;;;;470000;247;28030;-73
2021/10/23 05:00:00;;;;;;;5.80;4.10;;;6.80;99.90;;;;;;471307;252;28113;-73
2021/10/23 05:02:01;;;;;;;5.12;4.28;;;6.80;99.90;;;;;;466249;255;27422;-72
2021/10/23 05:04:02;;;;;;;12.30;4.87;;;6.80;99.90;;;;;;470012;252;27587;-74
2021/10/23 05:06:04;;;;;;;5.35;4.55;;;6.80;99.90;;;;;;471265;252;27660;-73
2021/10/23 05:08:05;;;;;;;5.93;4.50;;;6.80;99.90;;;;;;466177;255;27470;-75
2021/10/23 05:10:06;;;;;;;5.85;4.75;;;6.90;99.90;;;;;;469984;248;27683;-75
2021/10/23 05:12:07;;;;;;;6.18;4.55;;;6.90;99.90;;;;;;471260;252;28084;-74
2021/10/23 05:14:09;;;;;;;4.43;3.97;;;6.80;99.90;;;;;;457974;259;28079;-74
2021/10/23 05:16:10;;;;;;;6.00;4.20;;;6.80;99.90;;;;;;459539;257;27486;-74
2021/10/23 05:18:11;;;;;;;5.32;4.55;;;6.90;99.90;;;;;;467681;253;27635;-74
2021/10/23 05:20:12;;;;;;;5.18;4.62;;;6.80;99.90;;;;;;467663;253;27589;-74
2021/10/23 05:22:14;;;;;;;6.47;4.60;;;6.90;99.90;;;;;;467661;253;27660;-75
2021/10/23 05:24:15;;;;;;;6.43;4.90;;;6.90;99.90;;;;;;467649;253;27668;-75
2021/10/23 05:26:16;;;;;;;8.20;6.60;;;6.80;99.90;;;;;;467635;247;28255;-76
2021/10/23 05:28:17;;;;;;;12.50;6.23;;;6.70;99.90;;;;;;467651;253;28575;-74
2021/10/23 05:30:19;;;;;;;8.95;6.68;;;6.70;99.90;;;;;;467655;253;29355;-75
2021/10/23 05:32:20;;;;;;;12.37;5.85;;;6.80;99.90;;;;;;467648;253;28029;-75
2021/10/23 05:34:21;;;;;;;9.10;6.43;;;6.80;99.90;;;;;;467668;253;27574;-75
2021/10/23 05:36:22;;;;;;;10.30;5.85;;;6.70;99.90;;;;;;467664;253;27745;-74
2021/10/23 05:38:24;;;;;;;8.90;5.65;;;6.80;99.90;;;;;;467665;253;27554;-74
2021/10/23 05:40:25;;;;;;;6.20;5.35;;;6.80;99.90;;;;;;469645;243;27533;-75
2021/10/23 05:42:26;;;;;;;8.05;5.80;;;6.80;99.90;;;;;;477411;246;28012;-75
2021/10/23 05:44:27;;;;;;;9.00;6.72;;;6.80;99.90;;;;;;469169;251;28036;-76
2021/10/23 05:46:29;;;;;;;8.48;6.90;;;6.80;99.90;;;;;;477227;245;27508;-75
2021/10/23 05:48:30;;;;;;;12.25;7.35;;;6.80;99.90;;;;;;465485;251;27433;-75
2021/10/23 05:50:31;;;;;;;8.80;7.60;;;6.70;99.90;;;;;;474807;249;27590;-73
2021/10/23 05:52:32;;;;;;;11.43;7.53;;;6.80;99.90;;;;;;465038;254;27411;-75
2021/10/23 05:54:37;;;;;;;8.33;6.93;;;6.80;99.90;;;;;;473755;250;27983;-75
2021/10/23 05:56:38;;;;;;;8.50;6.83;;;6.80;99.90;;;;;;465289;252;28549;-72
2021/10/23 05:58:39;;;;;;;8.45;6.60;;;6.80;99.90;;;;;;472272;249;28895;-72
2021/10/23 06:00:49;;;;;;;9.05;6.18;;;6.80;99.90;;;;;;472514;251;27681;-71
2021/10/23 06:02:42;;;;;;;8.63;6.55;;;6.80;99.90;;;;;;478122;248;27443;-72
2021/10/23 06:04:43;;;;;;;8.30;5.87;;;6.80;99.90;;;;;;478763;247;27980;-73
2021/10/23 06:06:44;;;;;;;8.10;6.45;;;6.80;99.90;;;;;;478753;247;27467;-72
2021/10/23 06:08:46;;;;;;;10.50;6.50;;;6.70;99.90;;;;;;478733;247;27522;-72
2021/10/23 06:10:47;;;;;;;7.70;5.60;;;6.80;99.90;;;;;;478726;248;27405;-72
2021/10/23 06:12:48;;;;;;;7.93;5.70;;;6.70;99.90;;;;;;472059;247;27490;-72
2021/10/23 06:14:49;;;;;;;5.73;5.13;;;6.80;99.90;;;;;;466123;251;28195;-73
2021/10/23 06:16:50;;;;;;;7.53;5.70;;;6.80;99.90;;;;;;475595;248;28180;-72
2021/10/23 06:18:52;;;;;;;6.12;5.00;;;6.80;99.90;;;;;;468523;249;28912;-72
2021/10/23 06:20:53;;;;;;;7.90;6.60;;;6.80;99.90;;;;;;480292;243;28151;-74
2021/10/23 06:22:54;;;;;;;6.90;5.40;;;6.80;99.90;;;;;;465152;255;27969;-72
2021/10/23 06:24:56;;;;;;;8.57;6.63;;;6.80;99.90;;;;;;479196;246;27610;-72
2021/10/23 06:26:57;;;;;;;10.38;6.05;;;6.80;99.90;;;;;;478658;248;27804;-71
2021/10/23 06:28:58;;;;;;;6.85;5.60;;;6.80;99.90;;;;;;478532;248;27658;-73
2021/10/23 06:30:59;;;;;;;6.87;5.10;;;6.80;99.90;;;;;;476613;243;27852;-74
2021/10/23 06:33:01;;;;;;;5.97;5.10;;;6.80;99.90;;;;;;482244;243;28629;-73
2021/10/23 06:35:02;;;;;;;7.40;5.45;;;6.70;99.90;;;;;;482440;246;27909;-73
2021/10/23 06:37:03;;;;;;;8.07;5.72;;;6.70;99.90;;;;;;482310;246;28050;-72
2021/10/23 06:39:04;;;;;;;8.07;6.22;;;6.80;99.90;;;;;;482343;246;27926;-73
2021/10/23 06:41:06;;;;;;;6.97;6.30;;;6.80;99.90;;;;;;482607;246;27546;-74
2021/10/23 06:43:07;;;;;;;8.20;5.30;;;6.80;99.90;;;;;;482515;246;28764;-72
2021/10/23 06:45:08;;;;;;;6.72;5.35;;;6.80;99.90;;;;;;482548;245;28891;-73
2021/10/23 06:47:09;;;;;;;7.73;6.00;;;6.80;99.90;;;;;;482577;246;27408;-72
2021/10/23 06:49:11;;;;;;;7.97;6.30;;;6.80;99.90;;;;;;482606;246;28804;-73
2021/10/23 06:51:12;;;;;;;6.22;5.57;;;6.90;99.90;;;;;;482626;246;28140;-75
2021/10/23 06:53:13;;;;;;;6.22;5.22;;;6.90;99.90;;;;;;482634;246;27633;-72
2021/10/23 06:55:14;;;;;;;8.05;6.40;;;6.80;99.90;;;;;;482617;246;27933;-73
2021/10/23 06:57:16;;;;;;;7.60;6.80;;;6.80;99.90;;;;;;482534;246;27745;-73
2021/10/23 06:59:17;;;;;;;9.27;7.07;;;6.90;99.90;;;;;;482621;246;27424;-73
2021/10/23 07:01:18;;;;;;;8.45;7.40;;;6.90;99.90;;;;;;482621;246;27455;-73
2021/10/23 07:03:19;;;;;;;7.40;6.40;;;6.80;99.90;;;;;;482569;246;27487;-72
2021/10/23 07:05:23;;;;;;;7.25;6.28;;;6.80;99.90;;;;;;482631;246;27570;-72
2021/10/23 07:07:23;;;;;;;7.55;6.05;;;6.80;99.90;;;;;;482467;246;27958;-74
2021/10/23 07:09:23;;;;;;;5.93;5.33;;;6.80;99.90;;;;;;482587;246;27958;-75
2021/10/23 07:11:24;;;;;;;6.20;5.60;;;6.80;99.90;;;;;;482607;246;28252;-74
2021/10/23 07:13:26;;;;;;;6.07;5.05;;;6.90;99.90;;;;;;482569;246;28764;-72
2021/10/23 07:15:27;;;;;;;7.27;5.60;;;6.90;99.90;;;;;;482603;246;27420;-73
2021/10/23 07:17:29;;;;;;;6.70;5.87;;;6.90;99.90;;;;;;482613;246;28137;-74
2021/10/23 07:19:29;;;;;;;7.53;6.00;;;6.80;99.90;;;;;;482605;246;27425;-72
2021/10/23 07:21:31;;;;;;;7.73;5.57;;;6.70;99.90;;;;;;482608;246;28495;-72
2021/10/23 07:23:32;;;;;;;8.37;7.17;;;6.80;99.90;;;;;;482596;246;28884;-72
2021/10/23 07:25:33;;;;;;;10.03;7.83;;;6.80;99.90;;;;;;482630;246;28236;-71
2021/10/23 07:27:34;;;;;;;10.60;8.93;;;6.90;99.90;;;;;;482613;246;28602;-73
2021/10/23 07:29:36;;;;;;;9.80;7.55;;;6.90;99.90;;;;;;482609;246;27874;-72
2021/10/23 07:31:37;;;;;;;9.55;6.80;;;6.90;99.90;;;;;;482609;246;27554;-72
2021/10/23 07:33:38;;;;;;;8.13;6.40;;;7.00;99.90;;;;;;482595;246;27475;-72
2021/10/23 07:35:39;;;;;;;7.13;6.40;;;7.00;99.90;;;;;;482635;246;27940;-72
2021/10/23 07:37:41;;;;;;;7.10;5.57;;;7.00;99.90;;;;;;482611;246;28037;-73
2021/10/23 07:39:42;;;;;;;6.82;5.70;;;7.10;99.90;;;;;;478876;246;28761;-73
2021/10/23 07:41:43;;;;;;;6.63;5.30;;;7.20;99.90;;;;;;483506;246;27503;-72
2021/10/23 07:43:44;;;;;;;6.70;5.77;;;7.20;99.90;;;;;;483569;246;27860;-75
2021/10/23 07:45:48;;;;;;;7.13;5.33;;;7.20;99.90;;;;;;483539;246;27609;-73
2021/10/23 07:47:47;;;;;;;5.70;5.10;;;7.20;99.90;;;;;;483370;245;28134;-73
2021/10/23 07:49:48;;;;;;;5.40;4.80;;;7.30;99.90;;;;;;483492;246;28478;-72
2021/10/23 07:51:49;;;;;;;6.20;5.20;;;7.40;99.90;;;;;;483498;246;28480;-72
2021/10/23 07:53:51;;;;;;;7.43;5.70;;;7.50;99.90;;;;;;483530;246;28562;-73
2021/10/23 07:55:52;;;;;;;7.17;5.60;;;7.60;99.90;;;;;;483477;246;28295;-72
2021/10/23 07:57:53;;;;;;;5.60;5.10;;;7.70;99.90;;;;;;483542;246;27743;-73
2021/10/23 07:59:54;;;;;;;5.80;5.07;;;7.80;99.90;;;;;;483497;246;27883;-73
2021/10/23 08:01:56;;;;;;;6.73;5.33;;;7.80;99.90;;;;;;483529;246;28009;-73
2021/10/23 08:03:57;;;;;;;7.13;5.63;;;7.80;99.90;;;;;;483577;246;27878;-72
2021/10/23 08:05:58;;;;;;;7.90;5.90;;;7.90;99.90;;;;;;483513;246;27479;-74
2021/10/23 08:07:59;;;;;;;7.13;5.60;;;8.10;99.90;;;;;;483533;246;27788;-73
2021/10/23 08:10:01;;;;;;;7.47;6.17;;;8.20;99.90;;;;;;483462;241;27515;-73
2021/10/23 08:12:03;;;;;;;7.30;5.87;;;8.30;99.90;;;;;;483513;241;28035;-73
2021/10/23 08:14:03;;;;;;;7.80;6.13;;;8.40;99.90;;;;;;483545;246;28030;-73
2021/10/23 08:16:04;;;;;;;5.67;5.10;;;8.50;99.90;;;;;;483494;246;27947;-73
2021/10/23 08:18:06;;;;;;;7.97;5.40;;;8.50;99.90;;;;;;474454;243;27809;-74
2021/10/23 08:20:07;;;;;;;5.80;5.20;;;8.50;99.90;;;;;;470601;251;27553;-74
2021/10/23 08:22:08;;;;;;;10.23;5.67;;;8.40;99.90;;;;;;470560;251;27778;-73
2021/10/23 08:24:10;;;;;;;5.70;4.47;;;8.50;99.90;;;;;;470612;251;27929;-76
2021/10/23 08:26:11;;;;;;;5.93;4.43;;;8.40;99.90;;;;;;470552;251;28619;-75
2021/10/23 08:28:12;;;;;;;5.47;4.30;;;8.30;99.90;;;;;;470566;251;28434;-74
2021/10/23 08:30:13;;;;;;;6.50;4.80;;;8.30;99.90;;;;;;477707;243;28966;-74
2021/10/23 08:32:14;;;;;;;5.80;4.50;;;8.40;99.90;;;;;;488356;243;28328;-74
2021/10/23 08:34:16;;;;;;;4.90;4.23;;;8.40;99.90;;;;;;488360;243;28491;-76
2021/10/23 08:36:17;;;;;;;4.30;3.67;;;8.50;99.90;;;;;;488325;243;27977;-74
2021/10/23 08:38:18;;;;;;;5.57;4.17;;;8.60;99.90;;;;;;488358;243;28097;-75
2021/10/23 08:40:19;;;;;;;4.53;3.83;;;8.60;99.90;;;;;;488383;243;27674;-75
2021/10/23 08:42:21;;;;;;;5.60;3.40;;;8.70;99.90;;;;;;488095;243;27785;-74
2021/10/23 08:44:22;;;;;;;4.70;3.47;;;8.80;99.90;;;;;;488348;243;27965;-74
2021/10/23 08:46:23;;;;;;;4.13;3.57;;;8.90;99.90;;;;;;488410;243;27845;-74
2021/10/23 08:48:24;;;;;;;5.33;4.37;;;9.00;99.90;;;;;;488378;243;27506;-74
2021/10/23 08:50:26;;;;;;;4.20;3.80;;;9.00;99.90;;;;;;488400;243;27605;-75
2021/10/23 08:52:30;;;;;;;4.57;3.47;;;9.00;99.90;;;;;;488410;243;27942;-74
2021/10/23 08:54:28;;;;;;;3.73;3.43;;;8.90;99.90;;;;;;481998;243;28041;-73
2021/10/23 08:56:29;;;;;;;3.90;3.60;;;9.00;99.90;;;;;;470585;251;28088;-73
2021/10/23 08:58:31;;;;;;;3.70;3.40;;;9.00;99.90;;;;;;471281;250;27787;-74
2021/10/23 09:00:32;;;;;;;4.73;3.60;;;8.90;99.90;;;;;;470276;252;27891;-74
2021/10/23 09:02:33;;;;;;;4.20;3.80;;;8.80;99.90;;;;;;475852;250;27962;-74
2021/10/23 09:04:34;;;;;;;4.07;3.67;;;8.80;99.90;;;;;;475849;250;28415;-74
2021/10/23 09:06:36;;;;;;;3.90;3.53;;;8.70;99.90;;;;;;475828;250;29231;-74
2021/10/23 09:08:37;;;;;;;3.80;3.47;;;8.70;99.90;;;;;;475865;250;28368;-74
2021/10/23 09:10:38;;;;;;;4.57;4.17;;;8.90;99.90;;;;;;475879;250;28396;-74
2021/10/23 09:12:39;;;;;;;3.70;3.40;;;8.90;99.90;;;;;;475830;250;28205;-74
2021/10/23 09:14:41;;;;;;;4.40;4.03;;;8.90;99.90;;;;;;475876;250;27921;-74
2021/10/23 09:16:42;;;;;;;4.27;3.87;;;8.90;99.90;;;;;;474497;250;28046;-73
2021/10/23 09:18:43;;;;;;;5.20;3.93;;;8.80;99.90;;;;;;476254;250;28081;-73
2021/10/23 09:20:44;;;;;;;5.00;3.80;;;8.80;99.90;;;;;;489872;243;28027;-73
2021/10/23 09:22:46;;;;;;;4.50;4.10;;;8.80;99.90;;;;;;482634;246;28118;-73
2021/10/23 09:24:47;;;;;;;4.50;3.80;;;9.00;99.90;;;;;;482721;246;27895;-73
2021/10/23 09:26:50;;;;;;;4.33;3.93;;;8.90;99.90;;;;;;482727;246;28009;-73
2021/10/23 09:28:49;;;;;;;4.53;3.87;;;8.80;99.90;;;;;;482682;246;27845;-74
2021/10/23 09:30:51;;;;;;;6.40;4.67;;;8.90;99.90;;;;;;482757;246;27983;-73
2021/10/23 09:32:52;;;;;;;6.73;4.90;;;8.90;99.90;;;;;;482718;246;27963;-73
2021/10/23 09:34:53;;;;;;;4.37;3.97;;;8.90;99.90;;;;;;482726;246;27977;-74
2021/10/23 09:36:54;;;;;;;4.00;3.50;;;8.90;99.90;;;;;;482737;246;28059;-74
2021/10/23 09:38:56;;;;;;;6.30;4.40;;;9.00;99.90;;;;;;482758;246;27967;-73
2021/10/23 09:40:57;;;;;;;4.67;4.13;;;8.90;99.90;;;;;;482723;246;27795;-73
2021/10/23 09:42:58;;;;;;;5.83;4.60;;;8.90;99.90;;;;;;482728;244;28445;-74
2021/10/23 09:45:06;;;;;;;9.83;4.33;;;8.90;99.90;;;;;;482682;246;28204;-74
2021/10/23 09:47:08;;;;;;;5.00;4.37;;;8.90;99.90;;;;;;482708;244;28652;-74
2021/10/23 09:49:08;;;;;;;4.30;3.90;;;9.00;99.90;;;;;;482670;246;27974;-74
2021/10/23 09:51:09;;;;;;;5.57;3.70;;;9.20;99.90;;;;;;482710;246;27743;-74
2021/10/23 09:53:11;;;;;;;4.23;3.53;;;9.40;99.90;;;;;;482634;246;27998;-73
2021/10/23 09:55:12;;;;;;;3.80;3.40;;;9.40;99.90;;;;;;482733;246;27886;-74
2021/10/23 09:57:13;;;;;;;3.60;3.20;;;9.40;99.90;;;;;;482716;245;27794;-74
2021/10/23 09:59:14;;;;;;;5.30;4.17;;;9.60;99.90;;;;;;482718;246;28026;-72
2021/10/23 10:01:16;;;;;;;3.73;3.30;;;9.70;99.90;;;;;;480163;244;27853;-74
2021/10/23 10:03:17;;;;;;;4.20;3.50;;;9.60;99.90;;;;;;471725;246;27767;-74
2021/10/23 10:05:18;;;;;;;4.03;3.73;;;9.70;99.90;;;;;;464827;250;27963;-74
2021/10/23 10:07:19;;;;;;;6.33;4.17;;;9.90;99.90;;;;;;475636;248;27946;-74
2021/10/23 10:09:21;;;;;;;3.50;3.20;;;10.00;99.90;;;;;;476786;249;28125;-74
2021/10/23 10:11:22;;;;;;;3.67;3.37;;;9.80;99.90;;;;;;464853;253;27967;-74
2021/10/23 10:13:23;;;;;;;3.63;3.33;;;9.90;99.90;;;;;;479943;245;27959;-75
2021/10/23 10:15:24;;;;;;;3.80;3.50;;;10.00;99.90;;;;;;469112;250;28805;-73
2021/10/23 10:17:26;;;;;;;3.70;3.40;;;9.90;99.90;;;;;;474347;248;28340;-74
2021/10/23 10:19:27;;;;;;;3.23;3.00;;;9.90;99.90;;;;;;475225;248;28148;-74
2021/10/23 10:21:28;;;;;;;3.67;3.10;;;9.90;99.90;;;;;;472998;251;28624;-75
2021/10/23 10:23:30;;;;;;;5.53;4.33;;;9.80;99.90;;;;;;481222;245;28499;-75
2021/10/23 10:25:31;;;;;;;4.17;3.87;;;9.70;99.90;;;;;;475351;249;27867;-75
2021/10/23 10:27:32;;;;;;;6.73;4.73;;;9.70;99.90;;;;;;475258;245;27939;-74
2021/10/23 10:29:33;;;;;;;4.63;4.23;;;9.80;99.90;;;;;;475286;250;27970;-73
2021/10/23 10:31:34;;;;;;;4.40;4.00;;;9.80;99.90;;;;;;475281;250;27920;-73
2021/10/23 10:33:43;;;;;;;4.27;3.87;;;9.80;99.90;;;;;;475290;250;28043;-73
2021/10/23 10:35:59;;;;;;;4.07;3.57;;;9.60;99.90;;;;;;474932;250;27545;-73
2021/10/23 10:37:49;;;;;;;3.37;3.17;;;9.50;99.90;;;;;;464541;255;27963;-74
2021/10/23 10:40:03;;;;;;;3.77;3.13;;;9.40;99.90;;;;;;475978;250;28580;-75